Terminal Aerodrome Forecast
Issued by NWS

Home | Current Version | Previous Version | Text Only | Print | Product List | Glossary Off
Versions: 1 2 3 4 5 6 7 8 9 10 11 12 13 14 15 16 17 18 19

884
FTUS43 KMPX 142111 AAA
TAFRNH
TAF AMD
KRNH 142111Z 1421/1518 07008G16KT 6SM -SHRA SCT015 OVC020
     FM150000 05012G17KT 5SM SHRA BR OVC015
     FM150300 03012G18KT 6SM -RA OVC007
     FM150600 34018G25KT 4SM -RA OVC015
     FM151300 32010KT P6SM BKN035=

USA.gov is the U.S. government's official web portal to all federal, state and local government web resources and services.